Time;durP1;ratioP1;P1;durP2;ratioP2;P2;SDS_P1;SDS_P2;PMS_P1;PMS_P2;Temp;Humidity;BMP_temperature;BMP_pressure;BME280_temperature;BME280_humidity;BME280_pressure;Samples;Min_cycle;Max_cycle;Signal;HPM_P1;HPM_P2
2022/09/07 00:06:20;;;;;;;392.13;351.43;;;;;;;;;;16890366;28;20577;-87
2022/09/07 00:14:40;;;;;;;389.80;348.50;;;;;;;;;;16891258;28;20178;-87
2022/09/07 00:23:00;;;;;;;386.80;344.50;;;;;;;;;;16890471;28;20216;-87
2022/09/07 00:31:21;;;;;;;391.33;349.17;;;;;;;;;;16891955;28;20293;-87
2022/09/07 00:39:42;;;;;;;376.20;321.53;;;;;;;;;;16888732;29;20208;-87
2022/09/07 00:48:05;;;;;;;378.60;330.97;;;;;;;;;;16889378;29;20213;-87
2022/09/07 00:56:27;;;;;;;368.93;316.27;;;;;;;;;;16886759;28;20233;-87
2022/09/07 01:04:50;;;;;;;372.13;315.57;;;;;;;;;;16888486;28;20205;-87
2022/09/07 01:13:11;;;;;;;365.37;302.87;;;;;;;;;;16888381;29;20255;-87
2022/09/07 01:21:43;;;;;;;370.50;286.13;;;;;;;;;;16886585;28;20206;-87
2022/09/07 01:30:04;;;;;;;374.87;284.67;;;;;;;;;;16887363;29;20174;-87
2022/09/07 01:38:24;;;;;;;353.17;276.30;;;;;;;;;;16886899;28;20178;-87
2022/09/07 01:46:51;;;;;;;356.63;267.57;;;;;;;;;;16887505;29;20295;-87
2022/09/07 01:55:20;;;;;;;352.20;273.87;;;;;;;;;;16885217;28;20260;-88
2022/09/07 02:03:50;;;;;;;344.83;266.33;;;;;;;;;;16884571;28;20247;-87
2022/09/07 02:12:29;;;;;;;348.47;264.03;;;;;;;;;;16897164;29;20173;-87
2022/09/07 02:20:52;;;;;;;356.30;257.80;;;;;;;;;;16896770;28;20312;-87
2022/09/07 02:29:12;;;;;;;351.10;260.33;;;;;;;;;;16896393;28;20548;-87
2022/09/07 02:37:33;;;;;;;355.53;262.43;;;;;;;;;;16894936;28;20224;-87
2022/09/07 02:46:13;;;;;;;340.67;257.60;;;;;;;;;;16894478;28;20474;-87
2022/09/07 02:54:52;;;;;;;352.47;254.33;;;;;;;;;;16895096;28;20211;-87
2022/09/07 03:03:22;;;;;;;344.93;248.33;;;;;;;;;;16893382;29;20225;-87
2022/09/07 03:11:42;;;;;;;335.27;244.80;;;;;;;;;;16894356;29;20181;-87
2022/09/07 03:20:03;;;;;;;332.97;232.00;;;;;;;;;;16891942;29;20212;-87
2022/09/07 03:28:23;;;;;;;308.33;231.03;;;;;;;;;;16892470;28;20633;-87
2022/09/07 03:36:43;;;;;;;321.97;222.33;;;;;;;;;;16893887;29;20177;-87
2022/09/07 03:45:05;;;;;;;310.77;224.70;;;;;;;;;;16892512;28;20213;-87
2022/09/07 03:53:25;;;;;;;310.50;216.27;;;;;;;;;;16892331;29;20276;-87
2022/09/07 04:01:46;;;;;;;330.37;207.43;;;;;;;;;;16890625;28;20232;-87
2022/09/07 04:10:06;;;;;;;320.63;210.03;;;;;;;;;;16892177;29;20181;-87
2022/09/07 04:18:26;;;;;;;326.87;219.53;;;;;;;;;;16891819;29;20626;-87
2022/09/07 04:26:47;;;;;;;329.23;228.10;;;;;;;;;;16891286;29;20213;-87
2022/09/07 04:35:08;;;;;;;333.43;237.80;;;;;;;;;;16889128;28;20541;-87
2022/09/07 04:43:28;;;;;;;352.53;310.30;;;;;;;;;;16890662;28;20672;-88
2022/09/07 04:51:49;;;;;;;408.17;366.73;;;;;;;;;;16889139;29;20204;-88
2022/09/07 05:00:10;;;;;;;429.50;388.00;;;;;;;;;;16888784;28;20543;-88
2022/09/07 05:08:34;;;;;;;849.77;788.77;;;;;;;;;;16889233;29;20190;-89
2022/09/07 05:16:55;;;;;;;925.83;854.57;;;;;;;;;;16888042;29;20169;-90
2022/09/07 05:25:15;;;;;;;913.13;835.20;;;;;;;;;;16887475;28;20209;-90
2022/09/07 05:33:35;;;;;;;859.53;782.60;;;;;;;;;;16887153;28;20176;-87
2022/09/07 05:41:56;;;;;;;1310.45;999.90;;;;;;;;;;16887761;29;20215;-87
2022/09/07 05:50:16;;;;;;;1340.53;999.90;;;;;;;;;;16886294;29;20225;-88
2022/09/07 05:58:37;;;;;;;1347.25;999.90;;;;;;;;;;16885072;28;20593;-87
2022/09/07 06:06:57;;;;;;;1331.93;999.90;;;;;;;;;;16887945;28;20225;-87
2022/09/07 06:15:19;;;;;;;1319.07;999.90;;;;;;;;;;16885162;29;20251;-87
2022/09/07 06:23:40;;;;;;;1279.68;999.90;;;;;;;;;;16884017;29;20201;-87
2022/09/07 06:32:00;;;;;;;1260.90;999.90;;;;;;;;;;16884699;29;20208;-88
2022/09/07 06:40:21;;;;;;;1245.45;999.90;;;;;;;;;;16883841;29;20279;-87
2022/09/07 06:48:42;;;;;;;1232.50;999.90;;;;;;;;;;16885010;29;20467;-87
2022/09/07 06:57:07;;;;;;;1197.00;999.90;;;;;;;;;;16891843;28;20241;-89
2022/09/07 07:05:27;;;;;;;1187.90;999.90;;;;;;;;;;16895418;29;20220;-87
2022/09/07 07:13:48;;;;;;;1143.43;999.90;;;;;;;;;;16894062;29;20178;-87
2022/09/07 07:22:09;;;;;;;1129.63;999.90;;;;;;;;;;16892356;29;20213;-87
2022/09/07 07:30:29;;;;;;;1141.40;999.90;;;;;;;;;;16892045;29;20541;-87
2022/09/07 07:38:51;;;;;;;1133.15;999.90;;;;;;;;;;16891812;29;20185;-88
2022/09/07 07:47:11;;;;;;;1106.67;999.90;;;;;;;;;;16891560;29;20193;-88
2022/09/07 07:55:31;;;;;;;1108.23;999.90;;;;;;;;;;16891447;28;20241;-88
2022/09/07 08:03:52;;;;;;;1099.10;999.23;;;;;;;;;;16891269;28;20205;-90
2022/09/07 08:12:13;;;;;;;1095.50;998.23;;;;;;;;;;16892191;28;20633;-90
2022/09/07 08:20:34;;;;;;;1080.53;986.53;;;;;;;;;;16890069;28;20213;-89
2022/09/07 08:28:54;;;;;;;1077.50;984.63;;;;;;;;;;16892446;29;20181;-90
2022/09/07 08:37:14;;;;;;;1076.63;985.87;;;;;;;;;;16891676;28;20204;-89
2022/09/07 08:45:55;;;;;;;1080.27;990.07;;;;;;;;;;16887236;28;20213;-89
2022/09/07 08:54:16;;;;;;;904.67;839.40;;;;;;;;;;16887243;29;20251;-90
2022/09/07 09:02:37;;;;;;;1001.93;929.13;;;;;;;;;;16888104;28;20273;-89
2022/09/07 09:11:04;;;;;;;995.53;923.53;;;;;;;;;;16886149;28;20173;-88
2022/09/07 09:19:31;;;;;;;998.40;925.43;;;;;;;;;;16881035;28;20271;-88
2022/09/07 09:27:51;;;;;;;920.97;857.17;;;;;;;;;;16881753;28;20173;-88
2022/09/07 09:36:30;;;;;;;946.97;880.50;;;;;;;;;;16882443;28;20173;-87
2022/09/07 09:44:50;;;;;;;979.97;908.97;;;;;;;;;;16887737;29;20616;-88
2022/09/07 09:53:31;;;;;;;970.43;898.77;;;;;;;;;;16884726;29;20193;-88
2022/09/07 10:01:51;;;;;;;989.07;910.50;;;;;;;;;;16885147;28;20240;-89
2022/09/07 10:10:14;;;;;;;977.07;890.07;;;;;;;;;;16884787;28;20197;-89
2022/09/07 10:18:37;;;;;;;994.27;922.03;;;;;;;;;;16885331;29;20185;-89
2022/09/07 10:26:57;;;;;;;992.43;915.27;;;;;;;;;;16888475;28;20209;-88
2022/09/07 10:35:26;;;;;;;965.23;896.37;;;;;;;;;;16896115;28;20476;-89
2022/09/07 10:43:49;;;;;;;1002.40;923.73;;;;;;;;;;16895707;29;20491;-89
2022/09/07 10:52:12;;;;;;;996.23;910.97;;;;;;;;;;16894386;29;20193;-89
2022/09/07 11:00:52;;;;;;;1009.97;926.53;;;;;;;;;;16896120;28;20707;-88
2022/09/07 11:09:26;;;;;;;996.00;921.90;;;;;;;;;;16897840;28;20202;-88
2022/09/07 11:17:48;;;;;;;999.70;924.80;;;;;;;;;;16895012;29;20578;-89
2022/09/07 11:26:14;;;;;;;1004.73;926.10;;;;;;;;;;16894208;29;20225;-89
2022/09/07 11:34:39;;;;;;;1017.97;938.70;;;;;;;;;;16893943;29;20181;-89
2022/09/07 11:43:08;;;;;;;1030.97;952.83;;;;;;;;;;16892130;28;20652;-89
2022/09/07 11:51:36;;;;;;;1021.33;941.13;;;;;;;;;;16892381;29;20276;-89
2022/09/07 12:00:01;;;;;;;1039.77;958.93;;;;;;;;;;16891968;28;20264;-89
2022/09/07 12:08:21;;;;;;;1049.67;963.80;;;;;;;;;;16892638;29;20165;-89
2022/09/07 12:16:44;;;;;;;1050.00;961.60;;;;;;;;;;16890575;28;20184;-89
2022/09/07 12:25:08;;;;;;;1041.40;955.47;;;;;;;;;;16889846;28;20201;-89
2022/09/07 12:33:32;;;;;;;1049.33;964.57;;;;;;;;;;16890221;28;20256;-88
2022/09/07 12:42:15;;;;;;;1071.37;982.53;;;;;;;;;;16889536;28;20228;-87
2022/09/07 12:50:59;;;;;;;1064.87;980.23;;;;;;;;;;16889179;28;20217;-87
2022/09/07 12:59:38;;;;;;;1051.80;968.90;;;;;;;;;;16891314;28;20669;-86
2022/09/07 13:08:13;;;;;;;1068.43;985.77;;;;;;;;;;16887511;29;20176;-86
2022/09/07 13:16:35;;;;;;;1065.87;984.43;;;;;;;;;;16882493;28;20204;-86
2022/09/07 13:24:58;;;;;;;1071.47;987.83;;;;;;;;;;16880459;29;20240;-85
2022/09/07 13:33:25;;;;;;;1077.37;990.80;;;;;;;;;;16883076;28;20219;-86
2022/09/07 13:41:53;;;;;;;1093.13;999.90;;;;;;;;;;16885746;29;20209;-86
2022/09/07 13:50:21;;;;;;;1078.60;994.10;;;;;;;;;;16885694;29;20204;-86
2022/09/07 13:58:51;;;;;;;1084.57;997.53;;;;;;;;;;16886285;28;20724;-86
2022/09/07 14:07:11;;;;;;;1089.40;999.37;;;;;;;;;;16886159;29;20597;-86
2022/09/07 14:15:35;;;;;;;1091.10;999.90;;;;;;;;;;16886329;28;20177;-86
2022/09/07 14:23:57;;;;;;;1101.33;999.90;;;;;;;;;;16884584;29;20250;-86
2022/09/07 14:32:23;;;;;;;1114.70;999.90;;;;;;;;;;16884804;29;20178;-87
2022/09/07 14:40:44;;;;;;;1106.97;999.90;;;;;;;;;;16883738;28;20650;-87
2022/09/07 14:49:16;;;;;;;1106.17;999.90;;;;;;;;;;16883977;28;20214;-87
2022/09/07 14:57:36;;;;;;;1102.10;999.90;;;;;;;;;;16885088;28;20704;-87
2022/09/07 15:05:58;;;;;;;1084.43;996.07;;;;;;;;;;16882358;29;20220;-88
2022/09/07 15:14:19;;;;;;;1088.87;998.23;;;;;;;;;;16885442;29;20252;-87
2022/09/07 15:22:39;;;;;;;1085.97;998.07;;;;;;;;;;16894467;29;20559;-87
2022/09/07 15:31:01;;;;;;;1055.57;973.77;;;;;;;;;;16892709;28;20216;-87
2022/09/07 15:39:33;;;;;;;1065.03;982.67;;;;;;;;;;16886436;29;20181;-87
2022/09/07 15:47:55;;;;;;;1044.27;965.27;;;;;;;;;;16890676;29;20174;-87
2022/09/07 15:56:15;;;;;;;1034.33;954.47;;;;;;;;;;16886066;28;20237;-87
2022/09/07 16:04:35;;;;;;;1020.20;942.27;;;;;;;;;;16884224;29;20275;-87
2022/09/07 16:12:56;;;;;;;1007.77;935.03;;;;;;;;;;16886291;29;20564;-87
2022/09/07 16:21:17;;;;;;;983.47;911.53;;;;;;;;;;16891005;29;20660;-87
2022/09/07 16:29:37;;;;;;;980.40;908.13;;;;;;;;;;16889190;29;20622;-87
2022/09/07 16:37:58;;;;;;;979.30;908.43;;;;;;;;;;16889023;29;20184;-87
2022/09/07 16:46:20;;;;;;;967.73;898.47;;;;;;;;;;16889424;29;20217;-87
2022/09/07 16:54:40;;;;;;;948.93;881.97;;;;;;;;;;16888660;28;20205;-87
2022/09/07 17:03:01;;;;;;;940.37;873.90;;;;;;;;;;16887565;28;20209;-86
2022/09/07 17:11:23;;;;;;;907.17;842.20;;;;;;;;;;16887393;28;20212;-88
2022/09/07 17:19:43;;;;;;;919.53;852.73;;;;;;;;;;16888155;28;20247;-88
2022/09/07 17:28:03;;;;;;;895.40;830.40;;;;;;;;;;16889662;28;20185;-88
2022/09/07 17:36:24;;;;;;;876.83;813.37;;;;;;;;;;16886478;28;20173;-88
2022/09/07 17:44:45;;;;;;;886.60;821.97;;;;;;;;;;16887232;28;20207;-88
2022/09/07 17:53:05;;;;;;;872.80;808.57;;;;;;;;;;16885972;28;20201;-88
2022/09/07 18:01:25;;;;;;;848.73;784.93;;;;;;;;;;16885122;28;20280;-86
2022/09/07 18:09:46;;;;;;;855.07;790.30;;;;;;;;;;16884482;29;20236;-87
2022/09/07 18:18:08;;;;;;;824.63;760.67;;;;;;;;;;16885347;29;20252;-88
2022/09/07 18:26:28;;;;;;;823.03;761.67;;;;;;;;;;16884970;28;20558;-88
2022/09/07 18:34:49;;;;;;;821.47;759.10;;;;;;;;;;16884846;28;20212;-88
2022/09/07 18:43:10;;;;;;;818.70;756.97;;;;;;;;;;16884206;28;20216;-88
2022/09/07 18:51:31;;;;;;;802.00;740.37;;;;;;;;;;16890176;28;20201;-87
2022/09/07 18:59:51;;;;;;;796.10;734.40;;;;;;;;;;16888880;28;20260;-88
2022/09/07 19:08:11;;;;;;;792.60;731.63;;;;;;;;;;16888064;29;20236;-87
2022/09/07 19:16:32;;;;;;;787.23;726.17;;;;;;;;;;16892519;29;20614;-87
2022/09/07 19:24:53;;;;;;;774.73;713.07;;;;;;;;;;16890000;29;20221;-88
2022/09/07 19:33:22;;;;;;;770.40;708.80;;;;;;;;;;16891335;29;20181;-88
2022/09/07 19:41:43;;;;;;;756.53;695.63;;;;;;;;;;16890132;29;20212;-87
2022/09/07 19:50:04;;;;;;;756.80;695.40;;;;;;;;;;16888855;29;20569;-87
2022/09/07 19:58:25;;;;;;;737.90;676.73;;;;;;;;;;16888247;29;20272;-88
2022/09/07 20:06:45;;;;;;;736.27;675.27;;;;;;;;;;16888510;28;20251;-87
2022/09/07 20:15:06;;;;;;;722.67;662.20;;;;;;;;;;16889683;28;20272;-87
2022/09/07 20:23:27;;;;;;;725.20;663.77;;;;;;;;;;16888576;28;20260;-88
2022/09/07 20:31:47;;;;;;;708.23;648.43;;;;;;;;;;16887801;29;20591;-87
2022/09/07 20:40:08;;;;;;;701.43;641.83;;;;;;;;;;16887912;29;20211;-87
2022/09/07 20:48:30;;;;;;;700.03;640.17;;;;;;;;;;16887171;28;20260;-87
2022/09/07 20:56:50;;;;;;;721.20;660.90;;;;;;;;;;16886608;28;20256;-87
2022/09/07 21:05:11;;;;;;;708.43;647.67;;;;;;;;;;16885588;28;20228;-86
2022/09/07 21:13:31;;;;;;;705.87;645.90;;;;;;;;;;16884627;29;20173;-87
2022/09/07 21:21:51;;;;;;;693.73;634.17;;;;;;;;;;16886567;28;20216;-86
2022/09/07 21:30:12;;;;;;;700.97;642.40;;;;;;;;;;16886194;28;20208;-85
2022/09/07 21:38:33;;;;;;;697.70;638.80;;;;;;;;;;16886370;28;20176;-84
2022/09/07 21:46:53;;;;;;;685.30;624.80;;;;;;;;;;16885851;28;20286;-84
2022/09/07 21:55:13;;;;;;;674.37;614.90;;;;;;;;;;16882442;28;20302;-84
2022/09/07 22:03:34;;;;;;;686.97;624.37;;;;;;;;;;16881281;29;20579;-84
2022/09/07 22:11:54;;;;;;;663.90;598.80;;;;;;;;;;16882555;29;20185;-84
2022/09/07 22:20:14;;;;;;;655.73;591.97;;;;;;;;;;16887259;28;20665;-85
2022/09/07 22:28:35;;;;;;;647.83;584.17;;;;;;;;;;16897160;28;20181;-85
2022/09/07 22:36:56;;;;;;;654.23;589.67;;;;;;;;;;16895335;28;20181;-85
2022/09/07 22:45:16;;;;;;;630.63;565.30;;;;;;;;;;16895820;28;20533;-85
2022/09/07 22:53:38;;;;;;;627.20;562.03;;;;;;;;;;16895549;28;20205;-85
2022/09/07 23:01:58;;;;;;;626.37;561.63;;;;;;;;;;16895800;28;20232;-85
2022/09/07 23:10:18;;;;;;;610.10;545.50;;;;;;;;;;16894525;28;20214;-85
2022/09/07 23:18:42;;;;;;;615.20;549.13;;;;;;;;;;16895519;28;20174;-84
2022/09/07 23:27:02;;;;;;;613.43;547.60;;;;;;;;;;16892816;29;20204;-85
2022/09/07 23:35:22;;;;;;;611.37;546.07;;;;;;;;;;16893605;29;20641;-84
2022/09/07 23:43:43;;;;;;;615.00;549.03;;;;;;;;;;16891826;29;20218;-85
2022/09/07 23:52:03;;;;;;;597.00;532.30;;;;;;;;;;16893506;28;20594;-84
